Time;durP1;ratioP1;P1;durP2;ratioP2;P2;SDS_P1;SDS_P2;PMS_P1;PMS_P2;Temp;Humidity;BMP_temperature;BMP_pressure;BME280_temperature;BME280_humidity;BME280_pressure;Samples;Min_cycle;Max_cycle;Signal;HPM_P1;HPM_P2
2023/06/07 00:02:20;;;;;;;3.72;2.38;;;22.00;49.60;;;;;;5095568;28;20032;-73
2023/06/07 00:04:46;;;;;;;3.13;2.20;;;21.90;49.60;;;;;;5095143;28;20111;-73
2023/06/07 00:07:12;;;;;;;3.38;2.20;;;21.90;49.70;;;;;;5094113;28;20035;-75
2023/06/07 00:09:38;;;;;;;3.95;2.38;;;21.80;49.70;;;;;;5093885;28;20036;-73
2023/06/07 00:12:05;;;;;;;3.33;2.30;;;21.80;49.70;;;;;;5061134;28;20461;-73
2023/06/07 00:14:30;;;;;;;3.97;2.78;;;21.70;49.80;;;;;;5077189;28;20036;-73
2023/06/07 00:16:56;;;;;;;3.50;2.20;;;21.70;49.80;;;;;;5077113;28;20036;-73
2023/06/07 00:19:25;;;;;;;3.83;2.40;;;21.70;49.80;;;;;;5093663;28;20043;-73
2023/06/07 00:21:53;;;;;;;4.00;2.58;;;21.60;49.80;;;;;;5095746;28;20113;-73
2023/06/07 00:24:20;;;;;;;3.42;2.60;;;21.60;49.80;;;;;;5094527;28;20126;-74
2023/06/07 00:26:46;;;;;;;4.03;2.45;;;21.50;49.90;;;;;;5094594;28;20059;-73
2023/06/07 00:29:12;;;;;;;5.05;2.83;;;21.50;49.90;;;;;;5094552;28;20101;-74
2023/06/07 00:31:37;;;;;;;4.25;2.70;;;21.50;50.00;;;;;;5076875;28;20036;-74
2023/06/07 00:34:04;;;;;;;4.65;2.63;;;21.40;50.00;;;;;;5076898;28;20047;-74
2023/06/07 00:36:29;;;;;;;4.22;2.50;;;21.40;50.00;;;;;;5060807;28;20128;-74
2023/06/07 00:38:56;;;;;;;4.50;2.40;;;21.40;50.00;;;;;;5059594;28;20443;-73
2023/06/07 00:41:21;;;;;;;3.88;2.22;;;21.30;50.00;;;;;;5076892;28;20119;-74
2023/06/07 00:43:49;;;;;;;4.22;2.60;;;21.30;50.10;;;;;;5093425;28;20119;-73
2023/06/07 00:46:19;;;;;;;3.70;2.50;;;21.30;50.10;;;;;;5093978;28;20020;-74
2023/06/07 00:48:46;;;;;;;4.78;2.83;;;21.20;50.20;;;;;;5077357;28;20023;-73
2023/06/07 00:51:12;;;;;;;2.70;2.05;;;21.20;50.30;;;;;;5060610;28;20361;-73
2023/06/07 00:53:39;;;;;;;4.57;2.65;;;21.10;50.20;;;;;;5077106;28;20126;-73
2023/06/07 00:56:06;;;;;;;3.50;2.30;;;21.10;50.20;;;;;;5059862;28;20465;-75
2023/06/07 00:58:33;;;;;;;3.65;2.42;;;21.00;50.20;;;;;;5094140;28;20040;-73
2023/06/07 01:01:01;;;;;;;3.45;2.20;;;21.00;50.30;;;;;;5093641;28;20028;-74
2023/06/07 01:03:29;;;;;;;5.05;2.50;;;21.00;50.40;;;;;;5093142;28;20408;-73
2023/06/07 01:05:55;;;;;;;3.38;2.38;;;20.90;50.40;;;;;;5093611;28;20035;-74
2023/06/07 01:08:21;;;;;;;3.30;2.40;;;20.90;50.40;;;;;;5092876;28;20032;-74
2023/06/07 01:10:48;;;;;;;3.30;2.20;;;20.90;50.40;;;;;;5092974;28;20036;-73
2023/06/07 01:13:15;;;;;;;3.83;2.30;;;20.90;50.40;;;;;;5059319;28;20035;-73
2023/06/07 01:15:42;;;;;;;3.08;2.30;;;20.80;50.50;;;;;;5092753;28;20028;-73
2023/06/07 01:18:09;;;;;;;4.25;2.55;;;20.80;50.50;;;;;;5059186;28;20408;-73
2023/06/07 01:20:38;;;;;;;4.13;2.30;;;20.70;50.60;;;;;;5092823;28;20085;-73
2023/06/07 01:23:07;;;;;;;3.63;2.47;;;20.70;50.60;;;;;;5092505;28;20100;-74
2023/06/07 01:25:33;;;;;;;4.47;2.30;;;20.70;50.70;;;;;;5092496;28;20028;-73
2023/06/07 01:28:03;;;;;;;3.67;2.30;;;20.60;50.70;;;;;;5058901;28;20031;-75
2023/06/07 01:30:32;;;;;;;4.22;2.22;;;20.60;50.70;;;;;;5075704;28;20391;-74
2023/06/07 01:33:01;;;;;;;3.85;2.50;;;20.50;50.70;;;;;;5075960;28;20036;-73
2023/06/07 01:35:28;;;;;;;4.88;2.40;;;20.50;50.70;;;;;;5075216;28;20024;-73
2023/06/07 01:37:55;;;;;;;3.65;2.42;;;20.40;50.70;;;;;;5075476;28;20044;-74
2023/06/07 01:40:23;;;;;;;4.40;2.60;;;20.40;50.80;;;;;;5058744;28;20055;-73
2023/06/07 01:42:49;;;;;;;3.95;2.42;;;20.40;50.80;;;;;;5075349;28;20028;-73
2023/06/07 01:45:15;;;;;;;4.30;2.40;;;20.40;50.90;;;;;;5058857;28;20035;-74
2023/06/07 01:47:41;;;;;;;3.25;2.20;;;20.30;50.90;;;;;;5093577;28;20354;-76
2023/06/07 01:50:09;;;;;;;4.35;2.42;;;20.30;50.90;;;;;;5091896;28;20092;-76
2023/06/07 01:52:34;;;;;;;3.42;2.20;;;20.30;51.00;;;;;;5075005;28;20380;-76
2023/06/07 01:55:03;;;;;;;3.80;2.28;;;20.20;51.00;;;;;;5075391;28;20045;-76
2023/06/07 01:57:51;;;;;;;4.45;2.50;;;20.20;51.00;;;;;;5093306;28;20032;-76
2023/06/07 02:00:32;;;;;;;4.07;2.40;;;20.20;51.00;;;;;;5092651;28;20032;-76
2023/06/07 02:03:13;;;;;;;3.35;2.25;;;20.10;51.10;;;;;;5093330;28;20056;-76
2023/06/07 02:05:45;;;;;;;4.15;2.40;;;20.10;51.10;;;;;;5075195;28;20024;-76
2023/06/07 02:08:26;;;;;;;2.97;2.17;;;20.00;51.20;;;;;;5092021;28;20059;-76
2023/06/07 02:10:52;;;;;;;3.47;2.08;;;20.00;51.20;;;;;;5091608;28;20028;-76
2023/06/07 02:13:20;;;;;;;3.33;2.28;;;19.90;51.10;;;;;;5075825;28;20032;-76
2023/06/07 02:15:46;;;;;;;3.67;2.40;;;19.90;51.20;;;;;;5093136;28;20016;-76
2023/06/07 02:18:12;;;;;;;3.58;2.00;;;19.90;51.20;;;;;;5091727;28;20071;-76
2023/06/07 02:20:38;;;;;;;3.28;2.13;;;19.90;51.30;;;;;;5092018;28;20127;-76
2023/06/07 02:23:04;;;;;;;3.58;2.30;;;19.90;51.30;;;;;;5074938;28;20181;-77
2023/06/07 02:25:30;;;;;;;3.63;2.05;;;19.80;51.30;;;;;;5092364;28;20039;-77
2023/06/07 02:27:58;;;;;;;2.95;2.08;;;19.80;51.40;;;;;;5075312;28;20040;-77
2023/06/07 02:30:25;;;;;;;6.82;2.47;;;19.80;51.50;;;;;;5058899;28;20063;-75
2023/06/07 02:32:53;;;;;;;4.32;2.30;;;19.70;51.40;;;;;;5075081;28;20036;-77
2023/06/07 02:35:20;;;;;;;4.38;2.50;;;19.70;51.50;;;;;;5092186;28;20409;-77
2023/06/07 02:37:46;;;;;;;3.03;2.08;;;19.70;51.50;;;;;;5092151;28;20052;-77
2023/06/07 02:40:13;;;;;;;3.70;2.08;;;19.60;51.60;;;;;;5092215;28;20036;-77
2023/06/07 02:42:44;;;;;;;4.05;2.63;;;19.60;51.60;;;;;;5092145;28;20035;-76
2023/06/07 02:45:11;;;;;;;3.75;2.30;;;19.60;51.70;;;;;;5092447;28;20036;-76
2023/06/07 02:47:37;;;;;;;4.10;2.40;;;19.50;51.60;;;;;;5093593;28;20066;-77
2023/06/07 02:50:06;;;;;;;3.97;2.28;;;19.50;51.60;;;;;;5091766;28;20392;-77
2023/06/07 02:52:36;;;;;;;4.38;2.30;;;19.50;51.70;;;;;;5075243;28;20126;-76
2023/06/07 02:55:03;;;;;;;4.43;2.60;;;19.50;51.80;;;;;;5091985;28;20028;-76
2023/06/07 02:57:29;;;;;;;3.97;2.08;;;19.40;51.80;;;;;;5091184;28;20034;-76
2023/06/07 02:59:56;;;;;;;3.42;2.22;;;19.40;51.80;;;;;;5091716;28;20044;-77
2023/06/07 03:02:26;;;;;;;4.03;2.42;;;19.40;51.90;;;;;;5076613;28;20028;-77
2023/06/07 03:04:56;;;;;;;3.63;2.30;;;19.30;51.80;;;;;;5078645;28;20039;-76
2023/06/07 03:07:23;;;;;;;3.80;2.13;;;19.30;51.80;;;;;;5095109;28;20032;-77
2023/06/07 03:09:50;;;;;;;5.05;2.50;;;19.30;51.90;;;;;;5045620;28;20028;-77
2023/06/07 03:12:19;;;;;;;3.35;2.22;;;19.20;51.90;;;;;;5078652;28;20039;-77
2023/06/07 03:14:50;;;;;;;3.42;2.00;;;19.20;51.90;;;;;;5095296;28;20032;-77
2023/06/07 03:17:17;;;;;;;4.07;2.45;;;19.20;52.00;;;;;;5078226;28;20539;-77
2023/06/07 03:19:45;;;;;;;2.67;2.15;;;19.20;52.00;;;;;;5094984;28;20036;-77
2023/06/07 03:22:11;;;;;;;6.63;2.60;;;19.10;52.00;;;;;;5061393;28;20097;-77
2023/06/07 03:24:39;;;;;;;3.92;2.63;;;19.10;52.10;;;;;;5078415;28;20466;-77
2023/06/07 03:27:08;;;;;;;3.95;2.40;;;19.10;52.10;;;;;;5094707;28;20040;-76
2023/06/07 03:29:34;;;;;;;3.80;2.30;;;19.10;52.20;;;;;;5078091;28;20020;-77
2023/06/07 03:32:00;;;;;;;4.07;2.10;;;19.00;52.10;;;;;;5078174;28;20031;-76
2023/06/07 03:34:29;;;;;;;3.90;2.35;;;19.00;52.20;;;;;;5077833;28;20036;-77
2023/06/07 03:36:58;;;;;;;3.85;2.20;;;19.00;52.30;;;;;;5095055;28;20060;-76
2023/06/07 03:39:25;;;;;;;3.03;2.20;;;19.00;52.30;;;;;;5078210;28;20515;-77
2023/06/07 03:41:51;;;;;;;3.30;2.05;;;18.90;52.30;;;;;;5094506;28;20032;-77
2023/06/07 03:44:21;;;;;;;3.78;2.25;;;18.90;52.30;;;;;;5078979;28;20050;-77
2023/06/07 03:46:48;;;;;;;4.30;2.20;;;18.90;52.40;;;;;;5061296;28;20475;-77
2023/06/07 03:49:14;;;;;;;3.30;2.00;;;18.80;52.40;;;;;;5078275;28;20029;-77
2023/06/07 03:51:42;;;;;;;3.20;2.15;;;18.80;52.40;;;;;;5077497;28;20024;-77
2023/06/07 03:54:09;;;;;;;3.47;2.33;;;18.80;52.40;;;;;;5094576;28;20036;-77
2023/06/07 03:56:36;;;;;;;3.58;2.22;;;18.80;52.40;;;;;;5077592;28;20032;-77
2023/06/07 03:59:03;;;;;;;3.55;2.28;;;18.80;52.50;;;;;;5061538;28;20036;-77
2023/06/07 04:01:32;;;;;;;4.07;2.30;;;18.80;52.60;;;;;;5077675;28;20024;-77
2023/06/07 04:03:59;;;;;;;3.95;2.40;;;18.70;52.50;;;;;;5094319;28;20516;-77
2023/06/07 04:06:24;;;;;;;2.47;1.80;;;18.70;52.60;;;;;;5093926;28;20059;-77
2023/06/07 04:08:56;;;;;;;4.70;2.22;;;18.60;52.60;;;;;;5060225;28;20067;-77
2023/06/07 04:11:26;;;;;;;3.67;2.33;;;18.60;52.70;;;;;;5078386;28;20445;-77
2023/06/07 04:13:52;;;;;;;3.00;2.00;;;18.60;52.70;;;;;;5093278;28;20495;-77
2023/06/07 04:16:20;;;;;;;4.20;2.05;;;18.60;52.80;;;;;;5094535;28;20122;-77
2023/06/07 04:18:47;;;;;;;3.65;2.30;;;18.60;52.80;;;;;;5077729;28;20024;-77
2023/06/07 04:21:13;;;;;;;3.58;2.28;;;18.60;52.80;;;;;;5093616;28;20059;-77
2023/06/07 04:23:41;;;;;;;4.40;2.80;;;18.50;52.80;;;;;;5093684;28;20032;-77
2023/06/07 04:26:08;;;;;;;2.83;2.22;;;18.50;52.90;;;;;;5076996;28;20735;-77
2023/06/07 04:28:34;;;;;;;4.15;2.15;;;18.50;52.90;;;;;;5076844;28;20028;-77
2023/06/07 04:31:02;;;;;;;3.65;2.22;;;18.40;52.90;;;;;;5093716;28;20035;-77
2023/06/07 04:33:32;;;;;;;3.97;2.08;;;18.40;52.90;;;;;;5093607;28;20028;-77
2023/06/07 04:35:58;;;;;;;2.72;1.83;;;18.40;53.00;;;;;;5077589;28;20489;-77
2023/06/07 04:38:25;;;;;;;2.78;1.98;;;18.40;53.00;;;;;;5093169;28;20143;-77
2023/06/07 04:41:06;;;;;;;3.90;2.00;;;18.40;53.00;;;;;;5093089;28;20054;-77
2023/06/07 04:43:48;;;;;;;4.20;2.38;;;18.40;53.10;;;;;;5048751;28;20032;-77
2023/06/07 04:46:15;;;;;;;3.92;2.45;;;18.30;53.10;;;;;;5093490;28;20035;-77
2023/06/07 04:48:43;;;;;;;3.50;2.20;;;18.30;53.10;;;;;;5094560;28;20032;-77
2023/06/07 04:51:13;;;;;;;2.63;1.88;;;18.30;53.20;;;;;;5059943;28;20040;-77
2023/06/07 04:53:47;;;;;;;3.10;2.30;;;18.30;53.30;;;;;;5077537;28;20028;-77
2023/06/07 04:56:18;;;;;;;4.05;2.38;;;18.20;53.30;;;;;;5093840;28;20058;-77
2023/06/07 04:58:45;;;;;;;3.20;2.10;;;18.20;53.30;;;;;;5093093;28;20064;-77
2023/06/07 05:01:15;;;;;;;3.58;2.25;;;18.20;53.30;;;;;;5077127;28;20128;-77
2023/06/07 05:03:42;;;;;;;4.30;2.30;;;18.20;53.40;;;;;;5093012;28;20056;-77
2023/06/07 05:06:08;;;;;;;3.85;2.42;;;18.20;53.40;;;;;;5076396;28;20039;-77
2023/06/07 05:08:34;;;;;;;4.03;2.38;;;18.20;53.40;;;;;;5093518;28;20047;-77
2023/06/07 05:11:00;;;;;;;5.10;2.60;;;18.20;53.40;;;;;;5093158;28;20081;-77
2023/06/07 05:13:26;;;;;;;3.30;2.15;;;18.20;53.50;;;;;;5076459;28;20126;-77
2023/06/07 05:15:54;;;;;;;2.63;1.73;;;18.10;53.50;;;;;;5076271;28;20115;-77
2023/06/07 05:18:21;;;;;;;3.05;2.08;;;18.10;53.50;;;;;;5076016;28;20454;-76
2023/06/07 05:20:49;;;;;;;3.70;2.35;;;18.10;53.50;;;;;;5076120;28;20122;-78
2023/06/07 05:23:16;;;;;;;4.40;2.05;;;18.10;53.50;;;;;;5092632;28;20036;-76
2023/06/07 05:25:45;;;;;;;3.67;2.10;;;18.10;53.60;;;;;;5075848;28;20043;-77
2023/06/07 05:28:12;;;;;;;2.78;2.03;;;18.10;53.60;;;;;;5092511;28;20339;-77
2023/06/07 05:30:40;;;;;;;3.60;2.05;;;18.10;53.70;;;;;;5075282;28;20070;-76
2023/06/07 05:33:06;;;;;;;3.53;2.28;;;18.10;53.70;;;;;;5059603;28;20032;-76
2023/06/07 05:35:34;;;;;;;4.22;2.30;;;18.10;53.70;;;;;;5076332;28;20024;-76
2023/06/07 05:37:59;;;;;;;3.67;2.35;;;18.10;53.70;;;;;;5074983;28;20526;-76
2023/06/07 05:40:25;;;;;;;3.45;2.17;;;18.10;53.70;;;;;;5092075;28;20032;-76
2023/06/07 05:42:51;;;;;;;2.75;2.00;;;18.10;53.80;;;;;;5058647;28;20077;-76
2023/06/07 05:45:18;;;;;;;3.03;2.10;;;18.10;53.80;;;;;;5076121;28;20472;-77
2023/06/07 05:47:44;;;;;;;4.30;2.22;;;18.10;53.90;;;;;;5092618;28;20103;-76
2023/06/07 05:50:11;;;;;;;3.25;2.05;;;18.10;53.90;;;;;;5076015;28;20063;-77
2023/06/07 05:52:40;;;;;;;3.42;2.00;;;18.10;53.90;;;;;;5075180;28;20028;-78
2023/06/07 05:55:06;;;;;;;4.90;2.40;;;18.10;53.90;;;;;;5092223;28;20024;-76
2023/06/07 05:57:32;;;;;;;4.30;2.45;;;18.20;54.00;;;;;;5093612;28;20071;-76
2023/06/07 05:59:58;;;;;;;3.70;2.10;;;18.20;54.00;;;;;;5093207;28;20063;-77
2023/06/07 06:02:24;;;;;;;2.97;2.00;;;18.20;54.00;;;;;;5075524;28;20028;-76
2023/06/07 06:04:53;;;;;;;3.42;2.00;;;18.20;54.40;;;;;;5091942;28;20539;-76
2023/06/07 06:07:19;;;;;;;3.95;2.15;;;18.20;54.10;;;;;;5075503;28;20032;-76
2023/06/07 06:09:45;;;;;;;2.78;2.05;;;18.20;54.00;;;;;;5091913;28;20051;-76
2023/06/07 06:12:11;;;;;;;3.25;1.80;;;18.20;54.10;;;;;;5093608;28;20472;-76
2023/06/07 06:14:38;;;;;;;3.97;2.22;;;18.20;54.10;;;;;;5075430;28;20024;-76
2023/06/07 06:17:05;;;;;;;4.20;2.50;;;18.20;54.10;;;;;;5092261;28;20032;-76
2023/06/07 06:19:31;;;;;;;4.70;2.15;;;18.20;54.10;;;;;;5058637;28;20048;-76
2023/06/07 06:21:57;;;;;;;2.60;2.00;;;18.30;54.20;;;;;;5093766;28;20419;-76
2023/06/07 06:24:22;;;;;;;4.80;2.42;;;18.30;54.20;;;;;;5075068;28;20126;-76
2023/06/07 06:26:48;;;;;;;2.90;1.90;;;18.30;54.20;;;;;;5092255;28;20495;-75
2023/06/07 06:29:14;;;;;;;3.40;2.08;;;18.30;54.20;;;;;;5091837;28;20054;-76
2023/06/07 06:31:43;;;;;;;4.18;2.28;;;18.30;54.20;;;;;;5093335;28;20384;-76
2023/06/07 06:34:08;;;;;;;2.90;2.05;;;18.40;54.30;;;;;;5093162;28;20039;-76
2023/06/07 06:36:34;;;;;;;3.35;2.08;;;18.40;54.20;;;;;;5091315;28;20024;-79
2023/06/07 06:39:02;;;;;;;4.00;2.05;;;18.40;54.30;;;;;;5078694;28;20098;-76
2023/06/07 06:41:28;;;;;;;4.25;2.25;;;18.40;54.30;;;;;;5079214;28;20040;-76
2023/06/07 06:43:54;;;;;;;4.15;2.42;;;18.30;54.30;;;;;;5045734;28;20028;-76
2023/06/07 06:46:20;;;;;;;4.07;2.15;;;18.40;54.30;;;;;;5095652;28;20032;-76
2023/06/07 06:48:46;;;;;;;4.22;2.60;;;18.40;54.30;;;;;;5078639;28;20063;-75
2023/06/07 06:51:12;;;;;;;3.35;2.22;;;18.40;54.30;;;;;;5096001;28;20038;-76
2023/06/07 06:53:37;;;;;;;3.75;2.30;;;18.50;54.40;;;;;;5095448;28;20107;-76
2023/06/07 06:56:03;;;;;;;4.00;2.38;;;18.50;54.40;;;;;;5045497;28;20174;-76
2023/06/07 06:58:34;;;;;;;3.05;2.22;;;18.50;54.40;;;;;;5095232;28;20047;-76
2023/06/07 07:01:02;;;;;;;4.05;2.38;;;18.50;54.40;;;;;;5096349;28;20415;-76
2023/06/07 07:03:28;;;;;;;4.78;2.95;;;18.50;54.40;;;;;;5096364;28;20028;-76
2023/06/07 07:05:55;;;;;;;5.10;2.38;;;18.50;54.40;;;;;;5079292;28;20030;-76
2023/06/07 07:08:21;;;;;;;4.18;2.20;;;18.50;54.50;;;;;;5078218;28;20553;-76
2023/06/07 07:10:47;;;;;;;4.03;2.40;;;18.50;54.40;;;;;;5079369;28;20063;-76
2023/06/07 07:13:14;;;;;;;4.50;2.65;;;18.50;54.40;;;;;;5061788;28;20396;-76
2023/06/07 07:15:40;;;;;;;4.97;2.60;;;18.50;54.50;;;;;;5095472;28;20034;-76
2023/06/07 07:18:07;;;;;;;5.43;3.00;;;18.60;54.50;;;;;;5095294;28;20040;-76
2023/06/07 07:20:34;;;;;;;4.13;2.65;;;18.60;54.50;;;;;;5078439;28;20040;-76
2023/06/07 07:23:01;;;;;;;4.45;2.50;;;18.60;54.50;;;;;;5078885;28;20032;-75
2023/06/07 07:25:27;;;;;;;4.28;2.60;;;18.60;54.50;;;;;;5095335;28;20036;-76
2023/06/07 07:27:54;;;;;;;3.95;2.50;;;18.60;54.50;;;;;;5078535;28;20149;-76
2023/06/07 07:30:19;;;;;;;4.38;2.63;;;18.60;54.60;;;;;;5096438;28;20088;-76
2023/06/07 07:32:45;;;;;;;3.72;2.42;;;18.70;54.60;;;;;;5095086;28;20479;-75
2023/06/07 07:35:11;;;;;;;4.95;2.47;;;18.70;54.70;;;;;;5062104;28;20380;-75
2023/06/07 07:37:38;;;;;;;4.63;2.60;;;18.70;54.60;;;;;;5094557;28;20052;-76
2023/06/07 07:40:05;;;;;;;3.75;2.20;;;18.70;55.30;;;;;;5096883;28;20047;-76
2023/06/07 07:42:31;;;;;;;4.03;2.35;;;18.70;54.60;;;;;;5094586;28;20040;-75
2023/06/07 07:44:56;;;;;;;3.55;2.63;;;18.70;54.60;;;;;;5095691;28;20035;-75
2023/06/07 07:47:22;;;;;;;4.90;3.20;;;18.70;54.60;;;;;;5094304;28;20040;-76
2023/06/07 07:49:51;;;;;;;4.05;2.78;;;18.70;54.70;;;;;;5076832;28;20373;-76
2023/06/07 07:52:17;;;;;;;4.18;2.90;;;18.70;54.70;;;;;;5095512;28;20032;-76
2023/06/07 07:54:43;;;;;;;5.18;2.90;;;18.70;54.80;;;;;;5094250;28;20036;-75
2023/06/07 07:57:10;;;;;;;4.65;2.75;;;18.80;54.90;;;;;;5077462;28;20044;-76
2023/06/07 07:59:36;;;;;;;4.90;2.75;;;18.80;54.90;;;;;;5095205;28;20115;-75
2023/06/07 08:02:03;;;;;;;5.75;3.00;;;18.90;55.00;;;;;;5094435;28;20111;-75
2023/06/07 08:04:30;;;;;;;4.20;2.72;;;18.90;55.00;;;;;;5094073;28;20036;-75
2023/06/07 08:06:55;;;;;;;5.50;2.58;;;18.90;55.00;;;;;;5077406;28;20032;-76
2023/06/07 08:09:21;;;;;;;5.53;2.70;;;19.00;55.00;;;;;;5094107;28;20047;-75
2023/06/07 08:11:47;;;;;;;5.60;2.85;;;19.00;54.90;;;;;;5095745;28;20061;-76
2023/06/07 08:14:15;;;;;;;5.15;2.90;;;19.10;54.90;;;;;;5094412;28;20145;-75
2023/06/07 08:16:40;;;;;;;4.85;2.88;;;19.20;55.00;;;;;;5094550;28;20020;-75
2023/06/07 08:19:07;;;;;;;4.68;2.70;;;19.20;54.90;;;;;;5094002;28;20055;-75
2023/06/07 08:21:33;;;;;;;5.10;2.80;;;19.30;54.90;;;;;;5095195;28;20032;-76
2023/06/07 08:23:59;;;;;;;4.10;2.72;;;19.30;54.80;;;;;;5076799;28;20039;-76
2023/06/07 08:26:25;;;;;;;3.83;2.50;;;19.40;54.80;;;;;;5093797;28;20036;-76
2023/06/07 08:28:51;;;;;;;4.45;2.47;;;19.40;54.70;;;;;;5093477;28;20481;-75
2023/06/07 08:31:19;;;;;;;4.45;2.42;;;19.50;54.60;;;;;;5095283;28;20093;-76
2023/06/07 08:33:46;;;;;;;4.60;2.40;;;19.50;54.50;;;;;;5093857;28;20032;-75
2023/06/07 08:36:11;;;;;;;5.22;2.95;;;19.60;54.50;;;;;;5093725;28;20388;-75
2023/06/07 08:38:43;;;;;;;5.28;2.58;;;19.70;54.50;;;;;;5076294;28;20108;-75
2023/06/07 08:41:10;;;;;;;4.13;2.53;;;19.70;54.40;;;;;;5094480;28;20153;-75
2023/06/07 08:43:37;;;;;;;3.90;2.38;;;19.80;54.30;;;;;;5093116;28;20067;-75
2023/06/07 08:46:04;;;;;;;4.20;2.85;;;19.80;54.20;;;;;;5094421;28;20044;-75
2023/06/07 08:48:34;;;;;;;4.00;2.67;;;19.80;54.20;;;;;;5076712;28;20127;-76
2023/06/07 08:51:06;;;;;;;3.85;2.40;;;19.90;54.20;;;;;;5093250;28;20032;-75
2023/06/07 08:53:48;;;;;;;4.65;2.50;;;20.00;54.20;;;;;;5094318;28;20020;-76
2023/06/07 08:56:15;;;;;;;3.03;2.22;;;20.00;54.20;;;;;;5093873;28;20412;-76
2023/06/07 08:58:41;;;;;;;4.35;2.60;;;20.10;54.00;;;;;;5076625;28;20032;-76
2023/06/07 09:01:08;;;;;;;5.28;2.72;;;20.20;54.10;;;;;;5092614;28;20043;-76
2023/06/07 09:03:33;;;;;;;4.82;2.60;;;20.20;54.00;;;;;;5094065;28;20024;-76
2023/06/07 09:06:00;;;;;;;3.63;2.28;;;20.30;53.90;;;;;;5093623;28;20384;-76
2023/06/07 09:08:27;;;;;;;4.85;2.70;;;20.40;53.90;;;;;;5094581;28;20032;-76
2023/06/07 09:10:53;;;;;;;3.75;2.40;;;20.50;53.80;;;;;;5093942;28;20468;-76
2023/06/07 09:13:20;;;;;;;3.85;2.15;;;20.50;53.70;;;;;;5093042;28;20042;-76
2023/06/07 09:15:49;;;;;;;4.90;2.60;;;20.60;53.60;;;;;;5092685;28;20044;-76
2023/06/07 09:18:14;;;;;;;3.83;2.25;;;20.70;53.60;;;;;;5094592;28;20039;-76
2023/06/07 09:20:40;;;;;;;3.72;2.40;;;20.70;53.50;;;;;;5092820;28;20039;-76
2023/06/07 09:23:09;;;;;;;3.42;2.33;;;20.80;53.40;;;;;;5093744;28;20069;-76
2023/06/07 09:25:38;;;;;;;3.78;2.25;;;20.80;53.30;;;;;;5094144;28;20061;-76
2023/06/07 09:28:11;;;;;;;3.75;2.22;;;20.90;53.40;;;;;;5092686;28;20076;-76
2023/06/07 09:30:59;;;;;;;4.15;2.47;;;20.90;53.30;;;;;;5093921;28;20085;-76
2023/06/07 09:33:35;;;;;;;3.85;2.42;;;21.00;53.40;;;;;;5092910;28;20071;-76
2023/06/07 09:36:15;;;;;;;3.60;2.30;;;21.10;53.30;;;;;;5076095;28;20047;-76
2023/06/07 09:38:41;;;;;;;3.70;2.33;;;21.10;53.30;;;;;;5092114;28;20109;-76
2023/06/07 09:41:13;;;;;;;3.63;1.98;;;21.20;53.20;;;;;;5075748;28;20377;-76
2023/06/07 09:43:54;;;;;;;4.07;2.30;;;21.20;53.20;;;;;;5092169;28;20066;-76
2023/06/07 09:46:21;;;;;;;5.50;2.67;;;21.20;53.20;;;;;;5092102;28;20039;-76
2023/06/07 09:48:53;;;;;;;4.43;2.47;;;21.30;53.20;;;;;;5092625;28;20078;-76
2023/06/07 09:51:20;;;;;;;3.47;2.28;;;21.30;53.20;;;;;;5092308;28;20468;-76
2023/06/07 09:53:50;;;;;;;3.38;2.45;;;21.30;53.80;;;;;;5093722;28;20055;-76
2023/06/07 09:56:21;;;;;;;3.90;2.42;;;21.30;53.20;;;;;;5076053;28;20079;-76
2023/06/07 09:58:49;;;;;;;4.85;2.58;;;21.40;53.20;;;;;;5092067;28;20048;-76
2023/06/07 10:01:41;;;;;;;4.40;2.67;;;21.40;53.20;;;;;;5075155;28;20394;-76
2023/06/07 10:04:08;;;;;;;3.42;2.15;;;21.40;53.30;;;;;;5076047;28;20136;-77
2023/06/07 10:06:39;;;;;;;4.38;2.45;;;21.40;53.10;;;;;;5092243;28;20502;-77
2023/06/07 10:09:06;;;;;;;4.53;2.65;;;21.50;53.30;;;;;;5092564;28;20042;-77
2023/06/07 10:11:34;;;;;;;4.05;2.40;;;21.50;53.30;;;;;;5091538;28;20024;-76
2023/06/07 10:14:10;;;;;;;3.65;2.60;;;21.50;53.40;;;;;;5093257;28;20545;-76
2023/06/07 10:16:39;;;;;;;3.60;2.63;;;21.50;53.50;;;;;;5092371;28;20346;-76
2023/06/07 10:19:25;;;;;;;4.38;2.55;;;21.50;53.40;;;;;;5092218;28;20042;-77
2023/06/07 10:21:55;;;;;;;3.85;2.58;;;21.50;53.50;;;;;;5093586;28;20368;-76
2023/06/07 10:24:26;;;;;;;3.33;2.28;;;21.50;53.50;;;;;;5091905;28;20024;-76
2023/06/07 10:27:01;;;;;;;4.65;2.55;;;21.50;53.60;;;;;;5091782;28;20028;-75
2023/06/07 10:29:45;;;;;;;3.67;2.30;;;21.50;53.70;;;;;;5093449;28;20028;-76
2023/06/07 10:32:16;;;;;;;3.95;2.38;;;21.50;53.70;;;;;;5092140;28;20063;-77
2023/06/07 10:34:46;;;;;;;2.88;2.13;;;21.50;53.60;;;;;;5092772;28;20512;-76
2023/06/07 10:37:16;;;;;;;3.85;2.53;;;21.60;53.70;;;;;;5092951;28;20056;-76
2023/06/07 10:39:42;;;;;;;3.67;2.60;;;21.50;53.60;;;;;;5093462;28;20084;-76
2023/06/07 10:42:08;;;;;;;4.40;2.58;;;21.50;53.60;;;;;;5092350;28;20088;-76
2023/06/07 10:44:37;;;;;;;4.60;2.42;;;21.50;53.60;;;;;;5091524;28;20033;-76
2023/06/07 10:47:21;;;;;;;4.45;2.55;;;21.60;53.70;;;;;;5092345;28;20047;-76
2023/06/07 10:49:48;;;;;;;4.75;2.78;;;21.60;53.80;;;;;;5091456;28;20032;-76
2023/06/07 10:52:15;;;;;;;4.90;2.60;;;21.60;53.60;;;;;;5093248;28;20028;-76
2023/06/07 10:54:42;;;;;;;3.90;2.38;;;21.60;53.70;;;;;;5093211;28;20035;-76
2023/06/07 10:57:09;;;;;;;3.42;2.47;;;21.60;53.60;;;;;;5091852;28;20047;-76
2023/06/07 10:59:36;;;;;;;3.70;2.38;;;21.70;53.70;;;;;;5093032;28;20032;-76
2023/06/07 11:02:26;;;;;;;5.03;2.67;;;21.70;53.70;;;;;;5092823;28;20130;-76
2023/06/07 11:04:58;;;;;;;4.85;3.00;;;21.70;53.70;;;;;;5091390;28;20043;-76
2023/06/07 11:07:30;;;;;;;3.30;2.30;;;21.70;53.60;;;;;;5074799;28;20035;-76
2023/06/07 11:10:05;;;;;;;4.32;2.70;;;21.70;53.70;;;;;;5091121;28;20037;-76
2023/06/07 11:12:44;;;;;;;4.05;2.60;;;21.80;53.70;;;;;;5091319;28;20028;-76
2023/06/07 11:15:36;;;;;;;3.28;2.13;;;21.80;53.70;;;;;;5091497;28;20035;-76
2023/06/07 11:18:07;;;;;;;4.05;2.80;;;21.80;53.70;;;;;;5091731;28;20063;-76
2023/06/07 11:20:39;;;;;;;4.95;2.50;;;21.90;53.70;;;;;;5091684;28;20051;-76
2023/06/07 11:23:24;;;;;;;5.68;2.70;;;21.90;53.60;;;;;;5092429;28;20103;-76
2023/06/07 11:26:11;;;;;;;4.72;2.30;;;21.90;53.70;;;;;;5096559;28;20036;-77
2023/06/07 11:28:41;;;;;;;3.15;2.25;;;21.90;53.60;;;;;;5097115;28;20036;-76
2023/06/07 11:31:11;;;;;;;3.78;2.60;;;22.00;53.60;;;;;;5095180;28;20050;-77
2023/06/07 11:33:40;;;;;;;3.65;2.33;;;22.10;53.60;;;;;;5078656;28;20032;-77
2023/06/07 11:36:06;;;;;;;4.65;2.80;;;22.10;53.60;;;;;;5094579;28;20024;-76
2023/06/07 11:38:32;;;;;;;3.75;2.42;;;22.20;53.60;;;;;;5095250;28;20056;-76
2023/06/07 11:40:58;;;;;;;3.58;2.40;;;22.20;53.60;;;;;;5096069;28;20104;-76
2023/06/07 11:43:25;;;;;;;3.42;2.25;;;22.20;53.50;;;;;;5094617;28;20118;-76
2023/06/07 11:45:55;;;;;;;3.65;2.40;;;22.30;53.60;;;;;;5094437;28;20449;-77
2023/06/07 11:48:25;;;;;;;3.00;2.03;;;22.30;53.40;;;;;;5095459;28;20051;-76
2023/06/07 11:50:52;;;;;;;4.20;2.20;;;22.40;53.40;;;;;;5078079;28;20472;-76
2023/06/07 11:53:18;;;;;;;3.67;2.38;;;22.40;53.30;;;;;;5095471;28;20063;-76
2023/06/07 11:55:45;;;;;;;2.83;2.05;;;22.50;53.20;;;;;;5095960;28;20048;-76
2023/06/07 11:58:11;;;;;;;3.25;2.22;;;22.50;53.10;;;;;;5094137;28;20042;-77
2023/06/07 12:00:37;;;;;;;3.20;2.17;;;22.50;53.00;;;;;;5077381;28;20056;-77
2023/06/07 12:03:08;;;;;;;3.97;2.47;;;22.60;53.00;;;;;;5094285;28;20067;-77
2023/06/07 12:05:34;;;;;;;3.17;2.13;;;22.70;53.70;;;;;;5095931;28;20035;-77
2023/06/07 12:08:05;;;;;;;3.70;2.20;;;22.70;52.90;;;;;;5094233;28;20036;-77
2023/06/07 12:10:32;;;;;;;3.35;2.20;;;22.70;52.90;;;;;;5095401;28;20032;-77
2023/06/07 12:13:13;;;;;;;2.50;2.03;;;22.80;52.90;;;;;;5094990;28;20032;-78
2023/06/07 12:15:46;;;;;;;3.85;2.33;;;22.80;52.90;;;;;;5095657;28;20058;-78
2023/06/07 12:18:13;;;;;;;3.72;2.28;;;22.90;52.80;;;;;;5077222;28;20032;-77
2023/06/07 12:20:43;;;;;;;2.65;1.85;;;23.00;52.70;;;;;;5094973;28;20422;-77
2023/06/07 12:23:13;;;;;;;3.08;2.17;;;23.00;52.70;;;;;;5077657;28;20032;-77
2023/06/07 12:25:41;;;;;;;3.92;2.30;;;23.00;52.70;;;;;;5078255;28;20073;-77
2023/06/07 12:28:11;;;;;;;2.70;1.95;;;23.10;52.70;;;;;;5095490;28;20415;-77
2023/06/07 12:30:40;;;;;;;3.35;2.30;;;23.10;52.60;;;;;;5077410;28;20124;-77
2023/06/07 12:33:15;;;;;;;4.22;2.80;;;23.20;52.70;;;;;;5076883;28;20024;-78
2023/06/07 12:35:47;;;;;;;3.00;2.22;;;23.20;52.70;;;;;;5076051;28;20032;-77
2023/06/07 12:38:13;;;;;;;4.00;2.30;;;23.30;52.70;;;;;;5093415;28;20044;-78
2023/06/07 12:40:40;;;;;;;2.90;2.28;;;23.30;52.60;;;;;;5094216;28;20373;-78
2023/06/07 12:43:06;;;;;;;3.83;2.40;;;23.30;52.50;;;;;;5060094;28;20370;-77
2023/06/07 12:45:32;;;;;;;2.95;2.17;;;23.40;52.50;;;;;;5094400;28;20433;-77
2023/06/07 12:47:58;;;;;;;3.05;2.05;;;23.40;52.50;;;;;;5076672;28;20165;-77
2023/06/07 12:50:23;;;;;;;4.28;2.35;;;23.40;52.40;;;;;;5094097;28;20043;-77
2023/06/07 12:52:50;;;;;;;2.50;2.08;;;23.50;52.50;;;;;;5094890;28;20185;-77
2023/06/07 12:55:17;;;;;;;2.75;2.05;;;23.60;52.50;;;;;;5093234;28;20035;-77